Terminal Aerodrome Forecast
Issued by NWS

Home | Current Version | Previous Version | Text Only | Print | Product List | Glossary On
Versions: 1 2 3 4 5 6 7 8 9 10 11 12
000
FTUS43 KBIS 241722
TAFMOT
TAF
KMOT 241722Z 2418/2518 30016G25KT P6SM SCT050
     FM250100 31009KT P6SM SCT070
     FM250300 VRB05KT P6SM SKC
     FM251500 18006KT P6SM FEW100=

USA.gov is the U.S. government's official web portal to all federal, state and local government web resources and services.